SBJP/JPA METAR and TAF weather

Enter ICAO airport designator
Station Type Date Time Source
SBJP METAR 2019/10/21 22:00 UTC NOAA

SBJP 212200Z 07005KT 9999 FEW020 25/22 Q1012


Station Type Date Time Source
SBJP Decoded METAR 2019/10/21 22:00 UTC NOAA

Joao Pessoa, Brazil (SBJP) 07-06S 034-52W
Oct 21, 2019 - 06:00 PM EDT / 2019.10.21 2200 UTC
Wind: from the ENE (070 degrees) at 6 MPH (5 KT):0
Visibility: greater than 7 mile(s):0
Sky conditions: mostly clear
Temperature: 77 F (25 C)
Dew Point: 71 F (22 C)
Relative Humidity: 83%
Pressure (altimeter): 29.88 in. Hg (1012 hPa)
ob: SBJP 212200Z 07005KT 9999 FEW020 25/22 Q1012
cycle: 22

Station Type Date Time Source
SBJP TAF 2019/10/21 18:51 UTC NOAA

TAF TAF SBJP 211600Z 2118/2218 12010KT 9999 SCT025 TN23/2204Z TX29/2215Z
BECMG 2122/2124 15005KT CAVOK
BECMG 2202/2204 21003KT
BECMG 2208/2210 13005KT
BECMG 2212/2214 10010KT 9999 BKN025
RMK PEH

Example: see airport list